Strona główna
METAR-TAF:

METAR-TAF

Lotnisko :

Cranfield, Anglia

Szerokość geograficzna: 52-04N, Długość geograficzna: 000-37W, wysokość: 111 m

Aktualna obserwacja pogody

Raport powstał 9 godziny i 50 minut temu, godzina 17:20 UTC
Wiatr 8 kt od zachód
Temperatura 0°C
Wilgotność 100%
Ciśnienie 996 hPa
Widzialność 10 km lub więcej
Mało chmury na wysokości 1900 ft

METAR: EGTC 231720Z 27008KT 9999 FEW019 M00/M00 Q0996

czas: 03:10 (03:10 UTC)

Prognoza

Raport powstał 12 godziny i 46 minut temu, godzina 14:24 UTC
Prognoza ważna od 23 godzina 15 UTC do 23 godzina 18 UTC
Wiatr 9 kt od zachód
Widzialność 10 km lub więcej
Mało chmury na wysokości 1000 ft
Prawdopodobieństwo 30% :
Przejściowo
od 23 godzina 15 UTC do 23 godzina 18 UTC
Widzialność: 2000 m
Przerywane chmury na wysokości 400 ft
przelotny opad śniegu

TAF: EGTC 231424Z 2315/2318 26009KT 9999 FEW010 PROB30 TEMPO 2315/2318 2000 SHSN BKN004

Obserwacja i prognoza pogody dla ponad 4000 lotnisk (raport METAR i TAF).

Dostępne stacje oznaczono żółtymi i czerwonymi punktami na mapie.

Najedź kursorem aby zobaczyć nazwę stacji.

Kliknij aby zobaczyć obserwacje i prognozy pogody.

Aby zmienić mapę: kliknij na zielony przycisk z czarnym krzyżykiem, aby powiększyć; na zielony przycisk z myślnikiem, aby pomniejszyć; na zielone strzałki, aby przejść do map sąsiednich.


METAR-TAF: